Time;durP1;ratioP1;P1;durP2;ratioP2;P2;SDS_P1;SDS_P2;PMS_P1;PMS_P2;Temp;Humidity;BMP_temperature;BMP_pressure;BME280_temperature;BME280_humidity;BME280_pressure;Samples;Min_cycle;Max_cycle;Signal;HPM_P1;HPM_P2
2021/12/17 00:00:19;;;;;;;6.37;2.13;;;11.30;99.90;;;;;;5113263;27;20704;-66
2021/12/17 00:03:11;;;;;;;3.60;2.17;;;11.30;99.90;;;;;;5104086;28;20231;-69
2021/12/17 00:06:47;;;;;;;7.07;2.20;;;11.30;99.90;;;;;;5118126;28;20264;-68
2021/12/17 00:09:11;;;;;;;11.07;2.40;;;11.30;99.90;;;;;;5123116;28;20206;-67
2021/12/17 00:11:59;;;;;;;5.60;2.23;;;11.30;99.90;;;;;;5121314;28;20874;-67
2021/12/17 00:14:49;;;;;;;5.10;2.00;;;11.30;99.90;;;;;;5115831;28;20895;-67
2021/12/17 00:17:47;;;;;;;7.00;2.63;;;11.30;99.90;;;;;;5115256;28;20779;-68
2021/12/17 00:54:20;;;;;;;2.67;2.00;;;11.20;99.90;;;;;;5127227;27;20176;-68
2021/12/17 00:57:14;;;;;;;9.63;2.80;;;11.10;99.90;;;;;;5120881;27;20991;-67
2021/12/17 01:00:05;;;;;;;8.33;3.43;;;11.20;99.90;;;;;;5112149;27;20260;-67
2021/12/17 01:02:53;;;;;;;11.57;3.73;;;11.20;99.90;;;;;;5126116;27;20184;-67
2021/12/17 01:05:40;;;;;;;8.87;3.10;;;11.10;99.90;;;;;;5117810;27;20294;-66
2021/12/17 01:08:27;;;;;;;5.17;2.70;;;11.00;99.90;;;;;;5127327;27;20188;-67
2021/12/17 01:11:14;;;;;;;9.40;2.60;;;10.90;99.90;;;;;;5127867;27;20180;-67
2021/12/17 01:14:01;;;;;;;6.80;2.77;;;10.80;99.90;;;;;;5109393;27;20184;-68
2021/12/17 01:16:49;;;;;;;5.83;2.70;;;10.80;99.90;;;;;;5132873;27;20244;-67
2021/12/17 01:20:10;;;;;;;7.67;2.60;;;10.80;99.90;;;;;;5145174;27;20183;-66
2021/12/17 01:41:16;;;;;;;8.20;2.83;;;10.80;99.90;;;;;;5122910;27;20233;-67
2021/12/17 01:44:06;;;;;;;14.37;3.30;;;10.90;99.90;;;;;;5119031;27;20291;-67
2021/12/17 01:46:54;;;;;;;9.93;2.80;;;10.80;99.90;;;;;;5095357;28;20190;-67
2021/12/17 01:55:50;;;;;;;12.70;3.23;;;10.90;99.90;;;;;;5085279;28;20190;-67
2021/12/17 02:01:43;;;;;;;4.03;2.47;;;10.90;99.90;;;;;;5099669;28;20624;-65
2021/12/17 02:04:32;;;;;;;6.17;2.60;;;10.90;99.90;;;;;;5104385;28;20883;-68
2021/12/17 02:07:19;;;;;;;7.27;2.77;;;10.90;99.90;;;;;;5095228;28;20205;-68
2021/12/17 02:33:37;;;;;;;5.90;2.27;;;10.70;99.90;;;;;;5105787;28;20205;-65
2021/12/17 02:36:28;;;;;;;6.17;2.60;;;10.60;99.90;;;;;;5102127;28;20782;-66
2021/12/17 02:48:22;;;;;;;12.23;2.30;;;10.50;99.90;;;;;;5119351;27;20306;-67
2021/12/17 02:51:09;;;;;;;8.43;2.40;;;10.40;99.90;;;;;;5099269;27;20181;-67
2021/12/17 02:53:58;;;;;;;10.37;2.60;;;10.30;99.90;;;;;;5124645;27;20238;-68
2021/12/17 02:56:46;;;;;;;10.17;2.40;;;10.30;99.90;;;;;;5124796;27;20271;-68
2021/12/17 02:59:37;;;;;;;3.77;2.00;;;10.30;99.90;;;;;;5123913;27;20200;-68
2021/12/17 03:02:27;;;;;;;10.33;3.07;;;10.30;99.90;;;;;;5112551;27;20777;-67
2021/12/17 03:05:15;;;;;;;11.10;2.60;;;10.30;99.90;;;;;;5103892;27;20185;-67
2021/12/17 03:08:05;;;;;;;5.77;2.07;;;10.20;99.90;;;;;;5121578;27;20213;-68
2021/12/17 03:10:53;;;;;;;5.77;1.90;;;10.20;99.90;;;;;;5115313;27;20287;-67
2021/12/17 03:13:39;;;;;;;9.93;2.10;;;10.20;99.90;;;;;;5125333;27;20268;-68
2021/12/17 03:16:35;;;;;;;5.57;2.20;;;10.20;99.90;;;;;;5126489;27;20180;-68
2021/12/17 03:23:27;;;;;;;14.07;2.87;;;10.20;99.90;;;;;;5124259;27;20946;-67
2021/12/17 03:25:39;;;;;;;5.33;2.33;;;10.20;99.90;;;;;;5122693;27;20192;-67
2021/12/17 03:28:27;;;;;;;6.60;2.67;;;10.10;99.90;;;;;;5122506;27;20176;-66
2021/12/17 03:31:16;;;;;;;7.03;2.17;;;10.10;99.90;;;;;;5118859;27;20181;-66
2021/12/17 03:34:17;;;;;;;9.30;2.67;;;10.10;99.90;;;;;;5097766;28;20184;-67
2021/12/17 03:37:04;;;;;;;6.60;2.57;;;10.10;99.90;;;;;;5114840;27;20192;-67
2021/12/17 03:39:50;;;;;;;5.57;2.30;;;10.00;99.90;;;;;;5122810;27;20183;-66
2021/12/17 03:42:37;;;;;;;8.53;2.20;;;10.00;99.90;;;;;;5136653;27;20190;-65
2021/12/17 03:45:23;;;;;;;7.40;2.70;;;10.10;99.90;;;;;;5107856;27;20196;-66
2021/12/17 03:48:10;;;;;;;7.07;2.30;;;10.00;99.90;;;;;;5108026;27;20199;-67
2021/12/17 03:50:57;;;;;;;7.40;2.30;;;10.00;99.90;;;;;;5126032;27;20181;-66
2021/12/17 03:53:54;;;;;;;13.50;2.60;;;10.00;99.90;;;;;;5108731;27;20200;-69
2021/12/17 03:56:41;;;;;;;8.73;2.60;;;10.10;99.90;;;;;;5111798;27;20229;-68
2021/12/17 03:59:28;;;;;;;10.83;2.80;;;10.20;99.90;;;;;;5108556;28;20868;-68
2021/12/17 04:02:15;;;;;;;5.47;2.40;;;10.20;99.90;;;;;;5117577;27;20189;-67
2021/12/17 04:05:04;;;;;;;14.90;2.93;;;10.20;99.90;;;;;;5115821;27;20196;-66
2021/12/17 04:07:51;;;;;;;13.93;3.07;;;10.20;99.90;;;;;;5106391;28;20211;-66
2021/12/17 04:10:42;;;;;;;13.43;2.83;;;10.30;99.90;;;;;;5120762;28;20292;-67
2021/12/17 04:13:34;;;;;;;8.03;2.87;;;10.40;99.90;;;;;;5116069;28;20182;-67
2021/12/17 04:16:26;;;;;;;9.10;2.97;;;10.40;99.90;;;;;;5114377;28;20178;-68
2021/12/17 04:19:13;;;;;;;11.13;2.90;;;10.40;99.90;;;;;;5103198;28;20663;-66
2021/12/17 04:22:00;;;;;;;5.23;2.47;;;10.40;99.90;;;;;;5114960;28;20192;-68
2021/12/17 04:24:46;;;;;;;7.60;3.00;;;10.40;99.90;;;;;;5122451;28;20911;-68
2021/12/17 04:27:33;;;;;;;8.60;2.53;;;10.50;99.90;;;;;;5122328;27;20287;-66
2021/12/17 04:30:20;;;;;;;8.93;2.70;;;10.40;99.90;;;;;;5108686;28;20177;-67
2021/12/17 04:33:06;;;;;;;5.90;2.00;;;10.40;99.90;;;;;;5104598;27;20207;-68
2021/12/17 04:35:53;;;;;;;4.40;1.90;;;10.40;99.90;;;;;;5116222;27;20204;-68
2021/12/17 04:38:40;;;;;;;4.60;1.97;;;10.30;99.90;;;;;;5117942;28;20257;-66
2021/12/17 04:44:29;;;;;;;7.50;2.17;;;10.30;99.90;;;;;;5109871;28;20595;-64
2021/12/17 04:59:18;;;;;;;7.43;2.30;;;10.30;99.90;;;;;;5097505;28;20204;-67
2021/12/17 05:02:05;;;;;;;9.40;1.90;;;10.30;99.90;;;;;;5094028;28;20193;-66
2021/12/17 05:04:53;;;;;;;8.33;2.27;;;10.30;99.90;;;;;;5097151;28;20197;-67
2021/12/17 05:07:48;;;;;;;6.27;2.23;;;10.30;99.90;;;;;;5097781;28;20220;-67
2021/12/17 05:22:19;;;;;;;7.30;2.37;;;10.40;99.90;;;;;;5105092;28;20200;-65
2021/12/17 05:25:06;;;;;;;9.93;2.40;;;10.40;99.90;;;;;;5095617;28;20218;-65
2021/12/17 05:28:01;;;;;;;8.07;2.50;;;10.40;99.90;;;;;;5092071;28;20604;-65
2021/12/17 05:30:48;;;;;;;8.53;2.33;;;10.40;99.90;;;;;;5084640;28;20772;-67
2021/12/17 05:33:35;;;;;;;11.43;2.67;;;10.40;99.90;;;;;;5107091;28;20197;-65
2021/12/17 05:36:21;;;;;;;6.77;2.47;;;10.40;99.90;;;;;;5092784;27;20193;-68
2021/12/17 05:39:08;;;;;;;15.83;2.90;;;10.50;99.90;;;;;;5089682;28;20185;-67
2021/12/17 05:41:55;;;;;;;9.93;2.50;;;10.50;99.90;;;;;;5099315;28;20190;-67
2021/12/17 05:44:45;;;;;;;8.43;2.57;;;10.50;99.90;;;;;;5113550;27;20189;-68
2021/12/17 05:47:32;;;;;;;5.47;2.63;;;10.50;99.90;;;;;;5123714;27;20267;-68
2021/12/17 05:50:18;;;;;;;11.77;3.03;;;10.50;99.90;;;;;;5123301;27;20234;-68
2021/12/17 05:53:07;;;;;;;12.47;2.60;;;10.50;99.90;;;;;;5109422;27;20185;-67
2021/12/17 05:55:56;;;;;;;7.77;2.53;;;10.60;99.90;;;;;;5125223;27;20269;-67
2021/12/17 05:58:42;;;;;;;7.60;2.90;;;10.60;99.90;;;;;;5144309;27;20611;-68
2021/12/17 06:01:29;;;;;;;12.30;3.50;;;10.70;99.90;;;;;;5125638;27;20188;-67
2021/12/17 06:04:16;;;;;;;11.70;2.93;;;10.70;99.90;;;;;;5125341;27;20331;-68
2021/12/17 06:07:04;;;;;;;11.30;2.93;;;10.70;99.90;;;;;;5114342;27;20676;-68
2021/12/17 06:09:52;;;;;;;10.60;2.70;;;10.80;99.90;;;;;;5124272;27;20192;-67
2021/12/17 06:12:40;;;;;;;9.10;2.93;;;10.90;99.90;;;;;;5116955;27;20188;-67
2021/12/17 06:15:26;;;;;;;11.37;3.20;;;10.90;99.90;;;;;;5122260;27;20903;-66
2021/12/17 06:18:14;;;;;;;8.30;2.63;;;10.80;99.90;;;;;;5110731;27;20190;-66
2021/12/17 06:21:00;;;;;;;7.67;2.87;;;10.80;99.90;;;;;;5106509;27;20210;-65
2021/12/17 06:23:47;;;;;;;10.53;2.57;;;10.80;99.90;;;;;;5123763;27;20180;-67
2021/12/17 06:26:34;;;;;;;7.40;3.20;;;10.80;99.90;;;;;;5122483;27;20225;-66
2021/12/17 06:29:20;;;;;;;8.63;3.10;;;10.80;99.90;;;;;;5108768;27;20214;-65
2021/12/17 06:32:08;;;;;;;9.13;3.40;;;10.80;99.90;;;;;;5125509;27;20480;-65
2021/12/17 06:34:55;;;;;;;11.00;4.10;;;10.80;99.90;;;;;;5111493;27;20535;-66
2021/12/17 06:37:43;;;;;;;9.37;4.20;;;10.80;99.90;;;;;;5117208;27;20189;-66
2021/12/17 06:40:30;;;;;;;10.13;3.83;;;10.80;99.90;;;;;;5104963;27;20636;-66
2021/12/17 06:43:18;;;;;;;11.13;4.13;;;10.80;99.90;;;;;;5108804;27;20189;-66
2021/12/17 06:46:26;;;;;;;12.43;4.40;;;10.80;99.90;;;;;;5108201;27;20862;-66
2021/12/17 07:10:39;;;;;;;11.83;3.70;;;11.10;99.90;;;;;;5101552;27;20284;-65
2021/12/17 07:17:12;;;;;;;11.77;4.23;;;11.00;99.90;;;;;;5118885;27;20495;-66
2021/12/17 07:23:53;;;;;;;7.57;3.50;;;11.20;99.90;;;;;;5124230;27;20993;-65
2021/12/17 07:41:04;;;;;;;14.10;4.40;;;11.20;99.90;;;;;;5117792;27;20234;-67
2021/12/17 07:43:53;;;;;;;10.03;4.60;;;11.30;99.90;;;;;;5117891;27;20201;-67
2021/12/17 07:46:39;;;;;;;11.20;4.20;;;11.30;99.90;;;;;;5115893;27;20295;-65
2021/12/17 07:49:26;;;;;;;10.23;4.43;;;11.30;99.90;;;;;;5122738;27;20181;-67
2021/12/17 07:52:12;;;;;;;11.87;5.43;;;11.40;99.90;;;;;;5132752;27;20184;-68
2021/12/17 07:54:59;;;;;;;12.37;5.27;;;11.40;99.90;;;;;;5123020;27;20181;-66
2021/12/17 07:57:46;;;;;;;15.93;5.03;;;11.50;99.90;;;;;;5125757;27;20198;-64
2021/12/17 08:00:32;;;;;;;11.87;5.53;;;11.60;99.90;;;;;;5115468;28;20276;-67
2021/12/17 08:03:20;;;;;;;10.63;5.00;;;11.60;99.90;;;;;;5123971;28;20185;-65
2021/12/17 08:06:07;;;;;;;16.33;4.70;;;11.60;99.90;;;;;;5119682;28;20184;-65
2021/12/17 08:08:53;;;;;;;9.77;4.50;;;11.70;99.90;;;;;;5121595;28;20176;-66
2021/12/17 08:11:40;;;;;;;14.53;4.10;;;11.70;99.90;;;;;;5115362;28;20188;-66
2021/12/17 08:14:29;;;;;;;8.70;3.50;;;11.70;99.90;;;;;;5118073;28;20700;-66
2021/12/17 08:17:43;;;;;;;12.37;3.60;;;11.70;99.90;;;;;;5121933;28;20953;-65
2021/12/17 08:32:34;;;;;;;18.60;3.33;;;11.80;99.90;;;;;;5102986;28;20275;-67
2021/12/17 08:35:21;;;;;;;8.27;3.67;;;11.70;99.90;;;;;;5114088;28;20208;-66
2021/12/17 08:38:08;;;;;;;10.00;3.57;;;11.80;99.90;;;;;;5122692;28;20188;-67
2021/12/17 08:40:58;;;;;;;8.87;3.20;;;11.80;99.90;;;;;;5119375;27;20280;-65
2021/12/17 08:43:45;;;;;;;7.47;3.27;;;11.80;99.90;;;;;;5112326;28;20224;-68
2021/12/17 08:46:35;;;;;;;6.67;3.40;;;11.80;99.90;;;;;;5117214;27;20244;-66
2021/12/17 08:49:22;;;;;;;11.63;3.67;;;11.70;99.90;;;;;;5110285;27;20188;-67
2021/12/17 08:52:13;;;;;;;8.63;3.23;;;11.70;99.90;;;;;;5123881;27;20192;-66
2021/12/17 08:55:00;;;;;;;8.67;3.20;;;11.70;99.90;;;;;;5125048;27;20866;-66
2021/12/17 08:57:46;;;;;;;9.30;3.13;;;11.70;99.90;;;;;;5125720;27;20184;-68
2021/12/17 09:00:33;;;;;;;8.20;2.53;;;11.70;99.90;;;;;;5134791;27;20192;-67
2021/12/17 09:03:19;;;;;;;7.77;2.80;;;11.60;99.90;;;;;;5131400;27;20262;-67
2021/12/17 09:06:06;;;;;;;9.60;2.77;;;11.70;99.90;;;;;;5122789;27;20637;-67
2021/12/17 09:08:55;;;;;;;4.63;2.53;;;11.70;99.90;;;;;;5126529;27;20234;-68
2021/12/17 09:11:42;;;;;;;4.83;2.30;;;11.70;99.90;;;;;;5128334;27;20207;-67
2021/12/17 09:14:28;;;;;;;5.77;2.50;;;11.70;99.90;;;;;;5104103;27;20189;-67
2021/12/17 09:17:15;;;;;;;10.47;2.50;;;11.70;99.90;;;;;;5116063;27;20302;-67
2021/12/17 09:20:05;;;;;;;5.87;2.07;;;11.80;99.90;;;;;;5108152;27;20185;-67
2021/12/17 09:22:52;;;;;;;5.17;2.63;;;11.80;99.90;;;;;;5126095;27;20646;-67
2021/12/17 09:25:39;;;;;;;6.70;2.10;;;11.80;99.90;;;;;;5125295;27;20189;-67
2021/12/17 09:28:26;;;;;;;5.13;2.30;;;11.70;99.90;;;;;;5127274;27;20284;-68
2021/12/17 09:31:13;;;;;;;4.00;2.00;;;11.70;99.90;;;;;;5116949;27;20195;-66
2021/12/17 09:34:00;;;;;;;7.00;1.80;;;11.70;99.90;;;;;;5124266;27;20196;-66
2021/12/17 09:36:46;;;;;;;6.13;2.20;;;11.70;99.90;;;;;;5114434;27;20189;-68
2021/12/17 09:39:33;;;;;;;3.40;1.90;;;11.70;99.90;;;;;;5124988;27;20188;-68
2021/12/17 09:42:20;;;;;;;6.27;1.90;;;11.70;99.90;;;;;;5127157;27;20193;-67
2021/12/17 09:45:08;;;;;;;4.57;1.90;;;11.70;99.90;;;;;;5111253;27;20272;-67
2021/12/17 09:47:56;;;;;;;2.47;2.03;;;11.70;99.90;;;;;;5121988;27;20532;-68
2021/12/17 09:50:44;;;;;;;4.37;2.37;;;11.70;99.90;;;;;;5120931;27;20181;-68
2021/12/17 09:53:33;;;;;;;5.00;2.30;;;11.70;99.90;;;;;;5125147;27;20177;-67
2021/12/17 09:56:20;;;;;;;8.07;2.17;;;11.70;99.90;;;;;;5119579;27;20193;-67
2021/12/17 09:59:06;;;;;;;2.60;1.90;;;11.70;99.90;;;;;;5123853;27;20196;-66
2021/12/17 10:01:53;;;;;;;5.20;1.93;;;11.60;99.90;;;;;;5124852;27;20277;-68
2021/12/17 10:04:45;;;;;;;5.33;3.00;;;11.50;99.90;;;;;;5119548;27;20540;-66
2021/12/17 10:07:32;;;;;;;3.77;2.60;;;11.50;99.90;;;;;;5116453;27;20220;-68
2021/12/17 10:10:18;;;;;;;5.90;2.50;;;11.50;99.90;;;;;;5130440;27;20973;-68
2021/12/17 10:13:19;;;;;;;4.47;2.40;;;11.40;99.90;;;;;;5110826;27;20184;-66
2021/12/17 10:16:10;;;;;;;4.53;2.33;;;11.30;99.90;;;;;;5119269;27;20602;-66
2021/12/17 10:18:57;;;;;;;4.33;2.10;;;11.30;99.90;;;;;;5111562;27;20849;-67
2021/12/17 10:21:47;;;;;;;5.53;2.50;;;11.30;99.90;;;;;;5116889;27;21040;-67
2021/12/17 10:24:36;;;;;;;7.03;2.83;;;11.40;99.90;;;;;;5104423;27;20628;-68
2021/12/17 10:27:30;;;;;;;5.43;2.90;;;11.30;99.90;;;;;;5112905;27;20645;-67
2021/12/17 10:30:22;;;;;;;5.57;3.33;;;11.30;99.90;;;;;;5121346;27;20609;-67
2021/12/17 10:33:18;;;;;;;5.70;4.03;;;11.30;99.90;;;;;;5105103;27;20181;-68
2021/12/17 10:36:10;;;;;;;6.30;3.97;;;11.30;99.90;;;;;;5111598;27;20300;-68
2021/12/17 10:38:57;;;;;;;7.03;3.80;;;11.30;99.90;;;;;;5117795;27;20216;-67
2021/12/17 10:41:48;;;;;;;6.90;3.77;;;11.30;99.90;;;;;;5100098;28;20190;-67
2021/12/17 10:45:00;;;;;;;8.37;3.80;;;11.30;99.90;;;;;;5109965;27;20902;-68
2021/12/17 10:48:20;;;;;;;9.57;5.10;;;11.40;99.90;;;;;;5110265;27;20885;-66
2021/12/17 10:51:18;;;;;;;7.57;4.47;;;11.40;99.90;;;;;;5120706;27;20208;-68
2021/12/17 10:54:15;;;;;;;9.23;4.83;;;11.40;99.90;;;;;;5115780;27;20181;-67
2021/12/17 10:57:08;;;;;;;9.63;5.43;;;11.40;99.90;;;;;;5120070;27;20198;-67
2021/12/17 11:00:04;;;;;;;7.80;4.70;;;11.40;99.90;;;;;;5122379;27;20205;-67
2021/12/17 11:02:53;;;;;;;7.27;4.97;;;11.40;99.90;;;;;;5105540;27;20263;-69
2021/12/17 11:05:40;;;;;;;6.77;4.90;;;11.40;99.90;;;;;;5116431;27;20620;-68
2021/12/17 11:08:33;;;;;;;6.23;4.63;;;11.40;99.90;;;;;;5103894;28;20274;-67
2021/12/17 11:11:20;;;;;;;10.07;5.23;;;11.40;99.90;;;;;;5117909;27;20991;-67
2021/12/17 11:14:07;;;;;;;12.00;5.00;;;11.40;99.90;;;;;;5123198;27;20196;-68
2021/12/17 11:16:54;;;;;;;8.97;5.33;;;11.50;99.90;;;;;;5119102;27;20665;-67
2021/12/17 11:19:43;;;;;;;11.67;4.83;;;11.50;99.90;;;;;;5101723;27;20185;-67
2021/12/17 11:22:30;;;;;;;4.83;3.87;;;11.50;99.90;;;;;;5108506;27;20514;-66
2021/12/17 11:25:19;;;;;;;17.73;4.97;;;11.50;99.90;;;;;;5111965;27;20208;-67
2021/12/17 11:28:08;;;;;;;12.63;4.73;;;11.50;99.90;;;;;;5122711;27;20209;-66
2021/12/17 11:30:55;;;;;;;7.53;4.13;;;11.50;99.90;;;;;;5117834;27;20692;-66
2021/12/17 11:33:45;;;;;;;13.27;4.10;;;11.50;99.90;;;;;;5099428;28;20174;-66
2021/12/17 11:36:32;;;;;;;9.77;4.10;;;11.50;99.90;;;;;;5130698;27;20214;-67
2021/12/17 11:39:37;;;;;;;9.67;4.37;;;11.60;99.90;;;;;;5116899;27;20535;-67
2021/12/17 11:43:26;;;;;;;9.60;4.03;;;11.50;99.90;;;;;;5122924;27;20669;-68
2021/12/17 11:46:13;;;;;;;11.47;4.00;;;11.50;99.90;;;;;;5115812;27;20276;-68
2021/12/17 11:49:15;;;;;;;6.97;3.63;;;11.50;99.90;;;;;;5107755;27;20896;-67
2021/12/17 11:52:04;;;;;;;9.67;3.20;;;11.50;99.90;;;;;;5117526;27;20542;-68
2021/12/17 11:54:51;;;;;;;11.17;3.40;;;11.40;99.90;;;;;;5123092;27;20316;-66
2021/12/17 11:57:42;;;;;;;12.20;3.50;;;11.40;99.90;;;;;;5127038;27;20240;-68
2021/12/17 12:00:53;;;;;;;11.47;3.53;;;11.40;99.90;;;;;;5105317;28;20193;-68
2021/12/17 12:03:40;;;;;;;8.47;3.60;;;11.40;99.90;;;;;;5104455;28;20302;-67
2021/12/17 12:06:35;;;;;;;12.80;3.27;;;11.40;99.90;;;;;;5120855;28;20200;-67
2021/12/17 12:10:12;;;;;;;11.63;3.37;;;11.40;99.90;;;;;;5120978;28;20239;-68
2021/12/17 12:13:00;;;;;;;7.50;3.10;;;11.50;99.90;;;;;;5093228;28;20208;-65
2021/12/17 12:16:06;;;;;;;10.17;2.70;;;11.80;99.90;;;;;;5121202;27;20673;-67
2021/12/17 12:19:10;;;;;;;9.47;3.70;;;12.00;99.90;;;;;;5121279;27;20185;-68
2021/12/17 12:22:08;;;;;;;8.03;2.77;;;12.00;99.90;;;;;;5119249;27;20195;-67
2021/12/17 12:25:30;;;;;;;4.90;2.30;;;12.00;99.90;;;;;;5134685;27;20246;-68
2021/12/17 12:28:17;;;;;;;7.70;2.57;;;12.00;99.90;;;;;;5118239;27;20833;-68
2021/12/17 12:31:04;;;;;;;6.17;2.90;;;12.00;99.90;;;;;;5092081;28;20692;-67
2021/12/17 12:34:13;;;;;;;4.43;2.80;;;12.10;99.90;;;;;;5126797;27;20200;-68
2021/12/17 12:37:03;;;;;;;9.50;2.67;;;12.10;99.90;;;;;;5126334;27;20846;-67
2021/12/17 12:39:53;;;;;;;7.33;2.67;;;12.10;99.90;;;;;;5113191;27;20192;-66
2021/12/17 12:42:47;;;;;;;7.30;2.90;;;12.10;99.90;;;;;;5106111;27;20586;-68
2021/12/17 12:45:40;;;;;;;3.10;2.50;;;12.20;99.90;;;;;;5108285;27;20204;-67
2021/12/17 12:48:38;;;;;;;11.60;2.80;;;12.30;99.90;;;;;;5126428;27;20216;-67
2021/12/17 12:51:25;;;;;;;6.37;2.50;;;12.40;99.90;;;;;;5100062;27;20185;-67
2021/12/17 12:54:12;;;;;;;5.63;2.43;;;12.40;99.90;;;;;;5122771;27;20195;-67
2021/12/17 12:56:59;;;;;;;5.83;2.80;;;12.40;99.90;;;;;;5118815;27;20204;-66
2021/12/17 12:59:52;;;;;;;9.20;2.83;;;12.50;99.90;;;;;;5115584;27;20280;-66
2021/12/17 13:02:41;;;;;;;5.20;2.60;;;12.40;99.90;;;;;;5102753;28;20272;-67
2021/12/17 13:05:29;;;;;;;4.10;2.43;;;12.40;99.90;;;;;;5115815;27;20792;-66
2021/12/17 13:08:20;;;;;;;6.87;2.37;;;12.40;99.90;;;;;;5125720;27;20981;-66
2021/12/17 13:11:07;;;;;;;6.30;2.40;;;12.30;99.90;;;;;;5125893;27;20322;-67
2021/12/17 13:13:56;;;;;;;7.33;2.60;;;12.20;99.90;;;;;;5113275;27;20189;-67
2021/12/17 13:16:55;;;;;;;4.10;2.10;;;12.20;99.90;;;;;;5121236;27;20188;-68
2021/12/17 13:23:12;;;;;;;5.73;2.47;;;12.20;99.90;;;;;;5115877;27;20342;-66
2021/12/17 13:26:11;;;;;;;6.73;2.67;;;12.20;99.90;;;;;;5116728;27;20210;-66
2021/12/17 13:29:15;;;;;;;9.13;2.50;;;12.10;99.90;;;;;;5123396;27;20420;-66
2021/12/17 13:32:10;;;;;;;10.47;2.70;;;12.10;99.90;;;;;;5120227;27;20288;-67
2021/12/17 13:34:59;;;;;;;16.70;3.00;;;12.10;99.90;;;;;;5115470;27;20215;-68
2021/12/17 13:37:46;;;;;;;5.70;2.40;;;12.10;99.90;;;;;;5124184;27;20546;-67
2021/12/17 13:40:36;;;;;;;7.53;3.00;;;12.10;99.90;;;;;;5124875;27;20189;-67
2021/12/17 13:43:28;;;;;;;7.30;2.80;;;12.00;99.90;;;;;;5105402;28;20268;-67
2021/12/17 13:46:15;;;;;;;6.60;2.70;;;12.00;99.90;;;;;;5114395;27;20192;-67
2021/12/17 13:49:02;;;;;;;7.17;2.97;;;12.00;99.90;;;;;;5123683;27;20180;-66
2021/12/17 13:51:49;;;;;;;4.23;2.67;;;11.90;99.90;;;;;;5103655;27;20189;-66
2021/12/17 13:54:37;;;;;;;3.90;2.63;;;11.90;99.90;;;;;;5109086;27;20181;-65
2021/12/17 13:57:33;;;;;;;6.60;2.50;;;11.80;99.90;;;;;;5119976;27;20241;-67
2021/12/17 14:00:32;;;;;;;7.03;2.33;;;11.80;99.90;;;;;;5124508;27;20298;-67
2021/12/17 14:03:22;;;;;;;9.40;2.60;;;11.80;99.90;;;;;;5124867;27;20264;-67
2021/12/17 14:06:22;;;;;;;6.27;2.53;;;11.80;99.90;;;;;;5106583;27;20230;-67
2021/12/17 14:09:09;;;;;;;4.53;2.27;;;11.80;99.90;;;;;;5116415;27;20519;-67
2021/12/17 14:11:58;;;;;;;9.17;2.57;;;11.70;99.90;;;;;;5122949;27;20187;-67
2021/12/17 14:15:04;;;;;;;4.60;2.17;;;11.70;99.90;;;;;;5113507;27;20185;-67
2021/12/17 14:18:01;;;;;;;6.63;2.23;;;11.70;99.90;;;;;;5116097;27;20204;-67
2021/12/17 14:20:59;;;;;;;4.47;2.40;;;11.70;99.90;;;;;;5102570;27;20216;-66
2021/12/17 14:23:46;;;;;;;5.30;3.10;;;11.70;99.90;;;;;;5114235;27;20181;-67
2021/12/17 14:26:33;;;;;;;8.20;2.50;;;11.70;99.90;;;;;;5118973;27;20295;-66
2021/12/17 14:29:20;;;;;;;6.13;2.47;;;11.70;99.90;;;;;;5124072;27;20579;-68
2021/12/17 14:32:06;;;;;;;7.60;2.60;;;11.70;99.90;;;;;;5102937;27;20842;-68
2021/12/17 14:34:55;;;;;;;5.37;2.30;;;11.60;99.90;;;;;;5121681;27;20203;-66
2021/12/17 14:37:56;;;;;;;7.57;2.63;;;11.60;99.90;;;;;;5115981;27;20181;-66
2021/12/17 14:40:55;;;;;;;6.77;2.63;;;11.60;99.90;;;;;;5113174;27;20242;-66
2021/12/17 14:44:00;;;;;;;6.10;2.50;;;11.60;99.90;;;;;;5109185;27;20294;-66
2021/12/17 14:46:56;;;;;;;6.97;2.70;;;11.60;99.90;;;;;;5118070;27;20711;-67
2021/12/17 15:04:58;;;;;;;5.40;2.10;;;11.40;99.90;;;;;;5114824;27;20193;-68
2021/12/17 15:07:46;;;;;;;3.70;2.37;;;11.40;99.90;;;;;;5128680;27;20208;-66
2021/12/17 15:10:32;;;;;;;3.87;2.53;;;11.30;99.90;;;;;;5119193;27;20189;-66
2021/12/17 15:13:19;;;;;;;8.40;2.50;;;11.30;99.90;;;;;;5121715;27;20226;-67
2021/12/17 15:16:06;;;;;;;7.47;2.80;;;11.30;99.90;;;;;;5137107;27;20209;-66
2021/12/17 15:18:53;;;;;;;9.37;2.80;;;11.20;99.90;;;;;;5116671;27;20188;-65
2021/12/17 15:21:39;;;;;;;9.90;2.60;;;11.20;99.90;;;;;;5124901;27;20250;-66
2021/12/17 15:24:26;;;;;;;8.70;2.80;;;11.10;99.90;;;;;;5108238;27;20556;-68
2021/12/17 15:27:13;;;;;;;4.80;2.57;;;11.10;99.90;;;;;;5107623;27;20208;-67
2021/12/17 15:30:17;;;;;;;7.13;2.97;;;11.20;99.90;;;;;;5113514;27;20237;-66
2021/12/17 15:33:08;;;;;;;5.67;2.53;;;11.20;99.90;;;;;;5117446;27;20182;-68
2021/12/17 15:35:55;;;;;;;5.80;2.53;;;11.20;99.90;;;;;;5125342;27;20204;-66
2021/12/17 15:38:42;;;;;;;9.57;2.93;;;11.20;99.90;;;;;;5102671;27;20207;-67
2021/12/17 15:41:29;;;;;;;9.50;3.10;;;11.20;99.90;;;;;;5104803;27;20238;-67
2021/12/17 15:44:15;;;;;;;5.23;3.07;;;11.20;99.90;;;;;;5119795;27;20251;-66
2021/12/17 15:47:08;;;;;;;8.20;3.13;;;11.20;99.90;;;;;;5132928;27;20699;-67
2021/12/17 15:49:55;;;;;;;5.93;3.00;;;11.10;99.90;;;;;;5121272;27;20428;-66
2021/12/17 15:52:45;;;;;;;9.33;3.20;;;11.20;99.90;;;;;;5115850;27;20203;-68
2021/12/17 15:55:34;;;;;;;6.13;3.23;;;11.20;99.90;;;;;;5115118;27;20180;-66
2021/12/17 15:58:21;;;;;;;10.77;3.47;;;11.10;99.90;;;;;;5117212;27;20196;-66
2021/12/17 16:01:08;;;;;;;9.13;3.60;;;11.20;99.90;;;;;;5105883;28;20662;-68
2021/12/17 16:03:55;;;;;;;10.37;3.97;;;11.20;99.90;;;;;;5122739;28;20188;-67
2021/12/17 16:06:42;;;;;;;7.17;4.10;;;11.30;99.90;;;;;;5116040;27;20211;-67
2021/12/17 16:10:21;;;;;;;10.63;3.77;;;11.30;99.90;;;;;;5110202;27;20552;-66
2021/12/17 16:22:07;;;;;;;7.87;4.07;;;11.40;99.90;;;;;;5112140;28;20184;-65
2021/12/17 16:24:54;;;;;;;5.33;3.57;;;11.40;99.90;;;;;;5105443;28;20209;-67
2021/12/17 16:27:41;;;;;;;7.30;3.97;;;11.40;99.90;;;;;;5093857;28;20287;-68
2021/12/17 16:30:29;;;;;;;17.20;5.17;;;11.30;99.90;;;;;;5121281;28;20443;-67
2021/12/17 16:33:16;;;;;;;9.13;5.03;;;11.40;99.90;;;;;;5117445;28;20173;-69
2021/12/17 16:36:05;;;;;;;8.77;5.00;;;11.40;99.90;;;;;;5105253;28;20193;-67
2021/12/17 16:38:52;;;;;;;8.57;5.03;;;11.40;99.90;;;;;;5119547;28;20192;-68
2021/12/17 16:41:39;;;;;;;10.73;5.10;;;11.40;99.90;;;;;;5119856;28;20229;-66
2021/12/17 16:44:41;;;;;;;11.07;5.13;;;11.40;99.90;;;;;;5126869;27;20279;-67
2021/12/17 16:47:35;;;;;;;11.50;5.83;;;11.40;99.90;;;;;;5094114;28;20674;-66
2021/12/17 16:50:26;;;;;;;12.07;6.00;;;11.40;99.90;;;;;;5116436;28;20559;-67
2021/12/17 16:53:13;;;;;;;8.67;6.00;;;11.30;99.90;;;;;;5111001;27;20267;-67
2021/12/17 16:55:59;;;;;;;12.30;6.10;;;11.30;99.90;;;;;;5118733;27;20605;-68
2021/12/17 16:58:47;;;;;;;10.40;5.80;;;11.20;99.90;;;;;;5112572;27;20832;-67
2021/12/17 17:01:39;;;;;;;9.60;5.57;;;11.20;99.90;;;;;;5097259;28;20243;-67
2021/12/17 17:04:25;;;;;;;10.83;5.80;;;11.20;99.90;;;;;;5109795;27;20457;-68
2021/12/17 17:07:13;;;;;;;8.93;4.90;;;11.10;99.90;;;;;;5122510;27;20236;-67
2021/12/17 17:10:00;;;;;;;9.57;5.27;;;11.20;99.90;;;;;;5107438;27;20278;-68
2021/12/17 17:12:49;;;;;;;7.17;5.10;;;11.10;99.90;;;;;;5137119;27;20204;-67
2021/12/17 17:15:36;;;;;;;13.63;5.80;;;11.10;99.90;;;;;;5119659;27;20213;-68
2021/12/17 17:18:23;;;;;;;9.57;5.30;;;11.20;99.90;;;;;;5105975;27;20315;-68
2021/12/17 17:21:11;;;;;;;13.10;4.97;;;11.10;99.90;;;;;;5109428;27;20577;-68
2021/12/17 17:24:00;;;;;;;10.70;5.73;;;11.10;99.90;;;;;;5124813;27;20524;-66
2021/12/17 17:26:47;;;;;;;10.60;5.80;;;11.10;99.90;;;;;;5122492;27;20851;-68
2021/12/17 17:29:34;;;;;;;10.87;4.87;;;11.10;99.90;;;;;;5112721;27;20277;-67
2021/12/17 17:32:20;;;;;;;15.40;4.47;;;11.10;99.90;;;;;;5110298;27;20181;-68
2021/12/17 17:35:08;;;;;;;9.80;4.30;;;11.00;99.90;;;;;;5123940;27;20841;-66
2021/12/17 17:37:55;;;;;;;12.37;4.57;;;11.00;99.90;;;;;;5115700;27;20185;-69
2021/12/17 17:40:42;;;;;;;7.43;4.53;;;11.00;99.90;;;;;;5122424;27;20889;-68
2021/12/17 17:43:29;;;;;;;10.00;4.53;;;11.10;99.90;;;;;;5122529;27;20177;-67
2021/12/17 17:46:15;;;;;;;11.83;4.23;;;11.10;99.90;;;;;;5111273;27;20193;-67
2021/12/17 17:49:04;;;;;;;11.00;4.40;;;11.10;99.90;;;;;;5088337;28;20193;-67
2021/12/17 17:51:51;;;;;;;11.93;4.00;;;11.10;99.90;;;;;;5100999;27;20259;-66
2021/12/17 17:54:37;;;;;;;7.47;3.80;;;11.10;99.90;;;;;;5088322;28;20187;-66
2021/12/17 17:57:24;;;;;;;8.40;4.23;;;11.10;99.90;;;;;;5112830;27;20189;-67
2021/12/17 18:00:11;;;;;;;14.20;3.80;;;11.00;99.90;;;;;;5076951;27;20205;-68
2021/12/17 18:02:58;;;;;;;8.97;3.60;;;11.00;99.90;;;;;;5104849;28;20181;-66
2021/12/17 18:05:47;;;;;;;8.27;3.80;;;11.00;99.90;;;;;;5102496;28;20268;-66
2021/12/17 18:08:34;;;;;;;7.60;3.50;;;11.00;99.90;;;;;;5094520;28;20547;-67